createdAt,value
2022-11-02T00:01:03.026Z,3
2022-11-02T00:05:45.330Z,3
2022-11-02T00:10:27.566Z,3
2022-11-02T00:15:09.945Z,18
2022-11-02T00:19:52.199Z,18
2022-11-02T00:24:34.371Z,18
2022-11-02T00:29:15.780Z,18
2022-11-02T00:33:57.989Z,18
2022-11-02T00:38:40.316Z,18
2022-11-02T00:43:22.531Z,18
2022-11-02T00:48:04.827Z,18
2022-11-02T00:52:47.134Z,18
2022-11-02T00:57:29.355Z,18
2022-11-02T01:02:11.659Z,22
2022-11-02T01:06:53.966Z,22
2022-11-02T01:11:36.186Z,22
2022-11-02T01:16:18.513Z,22
2022-11-02T01:21:00.836Z,22
2022-11-02T01:25:43.013Z,22
2022-11-02T01:30:24.384Z,18
2022-11-02T01:35:06.636Z,18
2022-11-02T01:39:48.946Z,18
2022-11-02T01:44:31.182Z,18
2022-11-02T01:49:13.468Z,18
2022-11-02T01:53:55.773Z,18
2022-11-02T01:58:38.125Z,18
2022-11-02T02:03:20.316Z,18
2022-11-02T02:08:02.638Z,18
2022-11-02T02:12:44.929Z,18
2022-11-02T02:17:27.129Z,18
2022-11-02T02:22:09.494Z,18
2022-11-02T02:26:51.809Z,18
2022-11-02T02:31:33.056Z,22
2022-11-02T02:36:15.287Z,22
2022-11-02T02:40:57.583Z,15
2022-11-02T02:45:39.899Z,15
2022-11-02T02:50:22.105Z,15
2022-11-02T02:55:04.425Z,18
2022-11-02T02:59:46.730Z,18
2022-11-02T03:04:29.042Z,18
2022-11-02T03:09:11.251Z,15
2022-11-02T03:13:53.559Z,15
2022-11-02T03:18:35.866Z,15
2022-11-02T03:23:18.079Z,15
2022-11-02T03:28:00.417Z,15
2022-11-02T03:32:41.706Z,15
2022-11-02T03:37:24.035Z,15
2022-11-02T03:42:06.220Z,15
2022-11-02T03:46:48.640Z,15
2022-11-02T03:51:30.875Z,15
2022-11-02T03:56:13.054Z,15
2022-11-02T04:00:55.371Z,15
2022-11-02T04:05:37.685Z,12
2022-11-02T04:10:19.925Z,12
2022-11-02T04:15:02.221Z,12
2022-11-02T04:19:44.507Z,12
2022-11-02T04:24:26.716Z,12
2022-11-02T04:29:09.095Z,12
2022-11-02T04:33:50.351Z,12
2022-11-02T04:38:32.696Z,18
2022-11-02T04:43:14.917Z,18
2022-11-02T04:47:57.207Z,15
2022-11-02T04:52:39.483Z,15
2022-11-02T04:57:21.795Z,15
2022-11-02T05:02:04.004Z,15
2022-11-02T05:06:46.359Z,16
2022-11-02T05:11:28.664Z,12
2022-11-02T05:20:53.151Z,12
2022-11-02T05:25:35.457Z,12
2022-11-02T05:30:17.727Z,15
2022-11-02T05:34:58.984Z,15
2022-11-02T05:39:41.303Z,30
2022-11-02T05:44:23.601Z,33
2022-11-02T05:49:05.816Z,82
2022-11-02T05:53:48.169Z,97
2022-11-02T05:58:30.443Z,169
2022-11-02T06:03:12.665Z,344
2022-11-02T06:07:55.004Z,561
2022-11-02T06:12:37.272Z,835
2022-11-02T06:17:19.578Z,1118
2022-11-02T06:22:01.791Z,1369
2022-11-02T06:26:44.105Z,1448
2022-11-02T06:31:26.429Z,1941
2022-11-02T06:36:07.723Z,2211
2022-11-02T06:40:49.936Z,1957
2022-11-02T06:45:32.245Z,2866
2022-11-02T06:50:14.560Z,3100
2022-11-02T06:54:56.766Z,4350
2022-11-02T06:59:39.166Z,4374
2022-11-02T07:04:21.384Z,5022
2022-11-02T07:09:03.651Z,5375
2022-11-02T07:13:45.974Z,5889
2022-11-02T07:18:28.225Z,6482
2022-11-02T07:23:10.456Z,6581
2022-11-02T07:27:52.747Z,7232
2022-11-02T07:32:35.062Z,9270
2022-11-02T07:37:16.365Z,7401
2022-11-02T07:41:58.578Z,7485
2022-11-02T07:46:40.919Z,8223
2022-11-02T07:51:23.198Z,8400
2022-11-02T07:56:05.412Z,8457
2022-11-02T08:00:47.805Z,8580
2022-11-02T08:05:30.078Z,8819
2022-11-02T08:10:12.273Z,12064
2022-11-02T08:14:54.607Z,13507
2022-11-02T08:19:36.871Z,11109
2022-11-02T08:24:19.179Z,9967
2022-11-02T08:29:01.391Z,12067
2022-11-02T08:33:43.700Z,7825
2022-11-02T08:38:25.030Z,13590
2022-11-02T08:43:07.228Z,15843
2022-11-02T08:47:49.547Z,21827
2022-11-02T08:52:31.874Z,13991
2022-11-02T08:57:14.068Z,13696
2022-11-02T09:01:56.450Z,13910
2022-11-02T09:06:38.678Z,15840
2022-11-02T09:11:20.940Z,12560
2022-11-02T09:16:03.322Z,14363
2022-11-02T09:20:45.561Z,11747
2022-11-02T09:25:27.828Z,13042
2022-11-02T09:30:10.139Z,10400
2022-11-02T09:34:52.395Z,8024
2022-11-02T09:39:33.731Z,9600
2022-11-02T09:44:15.928Z,6395
2022-11-02T09:48:58.269Z,5304
2022-11-02T09:53:40.525Z,7124
2022-11-02T09:58:22.731Z,4839
2022-11-02T10:03:05.029Z,6181
2022-11-02T10:07:47.326Z,10016
2022-11-02T10:12:29.550Z,13014
2022-11-02T10:17:11.847Z,12114
2022-11-02T10:26:36.544Z,15788
2022-11-02T10:31:18.678Z,16156
2022-11-02T10:36:01.015Z,19141
2022-11-02T10:40:42.301Z,30724
2022-11-02T10:45:24.549Z,40869
2022-11-02T10:50:06.865Z,49609
2022-11-02T10:54:49.156Z,25848
2022-11-02T10:59:31.345Z,18633
2022-11-02T11:04:13.761Z,21700
2022-11-02T11:08:56.006Z,23951
2022-11-02T11:18:20.484Z,18407
2022-11-02T11:23:02.856Z,25602
2022-11-02T11:27:45.055Z,15870
2022-11-02T11:32:27.425Z,16125
2022-11-02T11:37:09.689Z,9904
2022-11-02T11:41:50.946Z,10892
2022-11-02T11:46:33.155Z,12500
2022-11-02T11:51:15.466Z,13777
2022-11-02T11:55:57.795Z,16061
2022-11-02T12:00:39.989Z,14934
2022-11-02T12:05:22.324Z,20521
2022-11-02T12:14:46.826Z,11808
2022-11-02T12:24:11.477Z,15871
2022-11-02T12:28:52.851Z,7778
2022-11-02T12:33:34.067Z,7670
2022-11-02T12:38:16.307Z,12209
2022-11-02T12:42:58.590Z,23666
2022-11-02T12:52:23.116Z,27717
2022-11-02T12:57:05.426Z,26016
2022-11-02T13:01:47.738Z,15483
2022-11-02T13:06:29.945Z,10382
2022-11-02T13:11:12.273Z,11040
2022-11-02T13:15:54.603Z,10110
2022-11-02T13:20:36.779Z,18852
2022-11-02T13:25:19.097Z,27826
2022-11-02T13:30:01.450Z,26741
2022-11-02T13:34:42.708Z,24419
2022-11-02T13:39:24.924Z,22305
2022-11-02T13:48:49.544Z,18449
2022-11-02T13:53:30.866Z,17919
2022-11-02T13:58:13.066Z,16277
2022-11-02T14:02:54.382Z,12450
2022-11-02T14:07:36.704Z,21883
2022-11-02T14:12:17.997Z,9862
2022-11-02T14:17:00.212Z,10210
2022-11-02T14:26:24.840Z,16331
2022-11-02T14:35:49.389Z,9261
2022-11-02T14:45:13.912Z,6845
2022-11-02T14:49:56.215Z,7369
2022-11-02T14:54:38.607Z,8048
2022-11-02T14:59:20.721Z,6116
2022-11-02T15:04:03.043Z,4026
2022-11-02T15:08:45.356Z,4124
2022-11-02T15:13:26.650Z,3787
2022-11-02T15:18:08.885Z,3282
2022-11-02T15:22:51.301Z,2683
2022-11-02T15:27:33.484Z,2139
2022-11-02T15:36:58.013Z,1378
2022-11-02T15:41:40.457Z,1022
2022-11-02T15:46:22.533Z,739
2022-11-02T15:51:04.890Z,495
2022-11-02T15:55:47.150Z,307
2022-11-02T16:00:29.363Z,195
2022-11-02T16:05:11.678Z,92
2022-11-02T16:09:53.993Z,58
2022-11-02T16:14:35.328Z,30
2022-11-02T16:19:17.511Z,13
2022-11-02T16:23:58.814Z,15
2022-11-02T16:28:40.124Z,12
2022-11-02T16:33:22.483Z,12
2022-11-02T16:38:04.745Z,12
2022-11-02T16:42:46.953Z,9
2022-11-02T16:47:29.261Z,9
2022-11-02T16:52:11.580Z,9
2022-11-02T16:56:53.786Z,9
2022-11-02T17:01:36.096Z,9
2022-11-02T17:06:18.508Z,4
2022-11-02T17:11:00.619Z,9
2022-11-02T17:15:41.927Z,9
2022-11-02T17:20:23.234Z,9
2022-11-02T17:25:05.566Z,9
2022-11-02T17:29:47.857Z,9
2022-11-02T17:34:30.071Z,9
2022-11-02T17:39:12.400Z,9
2022-11-02T17:43:54.722Z,9
2022-11-02T17:48:37.006Z,9
2022-11-02T17:53:19.211Z,9
2022-11-02T17:58:01.541Z,9
2022-11-02T18:02:43.833Z,9
2022-11-02T18:07:26.046Z,9
2022-11-02T18:12:08.357Z,9
2022-11-02T18:16:50.664Z,9
2022-11-02T18:21:31.972Z,9
2022-11-02T18:26:14.191Z,9
2022-11-02T18:30:56.496Z,9
2022-11-02T18:40:21.017Z,9
2022-11-02T18:49:45.639Z,9
2022-11-02T18:54:26.948Z,9
2022-11-02T18:59:08.310Z,9
2022-11-02T19:03:50.464Z,9
2022-11-02T19:08:32.778Z,4
2022-11-02T19:13:15.103Z,9
2022-11-02T19:17:57.304Z,9
2022-11-02T19:22:39.613Z,9
2022-11-02T19:27:21.928Z,9
2022-11-02T19:32:04.249Z,9
2022-11-02T19:36:46.442Z,9
2022-11-02T19:41:28.757Z,9
2022-11-02T19:46:10.068Z,9
2022-11-02T19:50:51.374Z,9
2022-11-02T19:55:33.695Z,9
2022-11-02T20:00:15.898Z,9
2022-11-02T20:04:58.206Z,9
2022-11-02T20:09:40.516Z,4
2022-11-02T20:14:22.732Z,4
2022-11-02T20:19:05.057Z,4
2022-11-02T20:23:47.387Z,4
2022-11-02T20:28:29.564Z,4
2022-11-02T20:33:11.874Z,4
2022-11-02T20:37:54.201Z,4
2022-11-02T20:42:36.396Z,4
2022-11-02T20:47:18.757Z,4
2022-11-02T20:52:00.126Z,7
2022-11-02T20:56:42.340Z,4
2022-11-02T21:01:24.552Z,7
2022-11-02T21:06:06.854Z,7
2022-11-02T21:10:49.166Z,7
2022-11-02T21:15:31.412Z,7
2022-11-02T21:20:13.692Z,7
2022-11-02T21:24:56.006Z,7
2022-11-02T21:29:38.335Z,7
2022-11-02T21:34:20.548Z,7
2022-11-02T21:39:02.845Z,7
2022-11-02T21:43:45.147Z,7
2022-11-02T21:48:27.361Z,7
2022-11-02T21:53:08.668Z,7
2022-11-02T21:57:51.020Z,7
2022-11-02T22:02:33.314Z,7
2022-11-02T22:07:15.509Z,7
2022-11-02T22:11:57.927Z,7
2022-11-02T22:16:40.182Z,7
2022-11-02T22:21:22.341Z,7
2022-11-02T22:26:04.654Z,7
2022-11-02T22:30:46.968Z,7
2022-11-02T22:35:29.279Z,7
2022-11-02T22:40:11.531Z,7
2022-11-02T22:44:53.832Z,7
2022-11-02T22:49:36.145Z,7
2022-11-02T22:54:17.422Z,7
2022-11-02T22:58:59.672Z,7
2022-11-02T23:03:42.014Z,7
2022-11-02T23:08:24.270Z,7
2022-11-02T23:13:06.475Z,7
2022-11-02T23:17:48.784Z,7
2022-11-02T23:22:31.129Z,7
2022-11-02T23:27:13.309Z,7
2022-11-02T23:31:55.615Z,7
2022-11-02T23:36:37.926Z,7
2022-11-02T23:41:20.238Z,7
2022-11-02T23:50:44.833Z,7
2022-11-02T23:55:26.071Z,7
